Time;durP1;ratioP1;P1;durP2;ratioP2;P2;SDS_P1;SDS_P2;PMS_P1;PMS_P2;Temp;Humidity;BMP_temperature;BMP_pressure;BME280_temperature;BME280_humidity;BME280_pressure;Samples;Min_cycle;Max_cycle;Signal;HPM_P1;HPM_P2
2022/05/12 00:01:26;;;;;;;2.88;2.17;;;;;;;22.17;41.26;99364.91;10474568;28;20127;-79
2022/05/12 00:06:28;;;;;;;3.30;1.70;;;;;;;22.40;40.90;99360.16;10564087;28;20040;-82
2022/05/12 00:11:30;;;;;;;5.43;1.65;;;;;;;22.51;40.13;99361.00;10551925;28;20048;-81
2022/05/12 00:16:32;;;;;;;2.10;1.30;;;;;;;22.70;39.45;99378.91;10552850;28;20054;-80
2022/05/12 00:21:34;;;;;;;3.42;1.58;;;;;;;22.69;39.32;99372.69;10466855;28;20036;-80
2022/05/12 00:26:36;;;;;;;4.07;1.50;;;;;;;22.92;38.65;99382.16;10467041;28;20032;-79
2022/05/12 00:31:40;;;;;;;2.88;1.80;;;;;;;22.90;38.49;99380.63;10556936;28;20067;-81
2022/05/12 00:36:43;;;;;;;4.13;1.50;;;;;;;22.75;38.85;99384.66;10552101;28;20066;-80
2022/05/12 00:41:45;;;;;;;3.30;1.27;;;;;;;22.54;39.15;99376.81;10448561;28;20048;-82
2022/05/12 00:46:49;;;;;;;4.63;1.45;;;;;;;22.66;38.87;99370.28;10550778;28;20077;-81
2022/05/12 00:51:57;;;;;;;4.05;1.45;;;;;;;22.72;38.33;99372.44;10464338;28;20044;-80
2022/05/12 00:56:59;;;;;;;3.95;1.67;;;;;;;22.57;38.63;99369.31;10551074;28;20111;-79
2022/05/12 01:02:04;;;;;;;2.65;1.20;;;;;;;22.37;39.31;99365.78;10469048;28;20109;-79
2022/05/12 01:07:06;;;;;;;3.58;1.63;;;;;;;22.39;38.93;99369.16;10556263;28;20056;-79
2022/05/12 01:12:08;;;;;;;2.03;1.38;;;;;;;22.30;39.43;99371.84;10469183;28;20121;-81
2022/05/12 01:17:10;;;;;;;3.90;1.40;;;;;;;22.22;39.28;99367.19;10460571;28;20040;-79
2022/05/12 01:22:29;;;;;;;5.45;1.40;;;;;;;22.23;39.36;99368.91;10469760;28;20052;-80
2022/05/12 01:27:31;;;;;;;2.35;1.48;;;;;;;22.33;39.06;99367.06;10473056;28;20043;-79
2022/05/12 01:32:32;;;;;;;3.13;1.55;;;;;;;22.21;39.46;99365.50;10476193;28;20044;-79
2022/05/12 01:37:38;;;;;;;3.38;1.50;;;;;;;22.07;39.52;99363.19;10478018;28;20044;-79
2022/05/12 01:42:40;;;;;;;2.72;1.25;;;;;;;22.07;39.40;99366.72;10562660;28;20043;-78
2022/05/12 01:47:43;;;;;;;1.95;1.30;;;;;;;22.07;39.36;99364.03;10563739;28;20044;-79
2022/05/12 01:52:45;;;;;;;3.40;1.30;;;;;;;21.80;39.77;99369.19;10564712;28;20044;-79
2022/05/12 01:57:47;;;;;;;2.03;1.40;;;;;;;21.72;39.92;99369.84;10566290;28;20048;-79
2022/05/12 02:02:49;;;;;;;3.35;1.60;;;;;;;21.79;39.62;99370.19;10479520;28;20052;-81
2022/05/12 02:07:51;;;;;;;1.35;1.20;;;;;;;21.67;40.13;99380.97;10611286;22;20048;-83
2022/05/12 02:13:29;;;;;;;2.60;1.33;;;;;;;21.69;39.83;99380.81;10588703;28;20047;-83
2022/05/12 02:18:43;;;;;;;3.85;1.33;;;;;;;21.65;40.16;99388.28;10567228;28;20062;-84
2022/05/12 02:23:53;;;;;;;2.38;1.30;;;;;;;21.42;40.69;99389.44;10464173;28;20062;-84
2022/05/12 02:29:09;;;;;;;2.25;1.55;;;;;;;21.69;40.21;99390.69;10464591;28;20040;-83
2022/05/12 02:34:18;;;;;;;1.90;1.30;;;;;;;21.78;40.40;99395.22;10488336;28;20040;-83
2022/05/12 02:39:51;;;;;;;3.95;1.67;;;;;;;21.81;40.14;99400.31;10481297;28;20041;-84
2022/05/12 02:45:20;;;;;;;2.47;1.40;;;;;;;21.75;40.22;99398.19;10479241;28;20044;-84
2022/05/12 02:50:29;;;;;;;1.92;1.50;;;;;;;21.74;40.28;99410.72;10530549;28;20044;-84
2022/05/12 02:56:01;;;;;;;2.92;1.40;;;;;;;21.74;40.33;99420.56;10484536;28;20044;-84
2022/05/12 03:01:08;;;;;;;7.03;1.58;;;;;;;21.49;40.88;99433.38;10462329;28;20048;-84
2022/05/12 03:06:35;;;;;;;3.15;1.40;;;;;;;21.37;40.97;99437.97;10473558;28;20036;-84
2022/05/12 03:11:49;;;;;;;1.85;1.50;;;;;;;21.17;41.75;99453.00;10573607;28;20031;-83
2022/05/12 03:16:56;;;;;;;2.65;1.50;;;;;;;21.12;41.43;99463.25;10496502;28;20067;-84
2022/05/12 03:22:02;;;;;;;2.90;1.50;;;;;;;21.23;41.50;99469.50;10560379;28;20047;-84
2022/05/12 03:27:13;;;;;;;2.97;1.58;;;;;;;21.02;42.15;99481.00;10472324;28;20497;-84
2022/05/12 03:32:30;;;;;;;1.65;1.40;;;;;;;21.04;42.03;99479.06;10560561;28;20108;-84
2022/05/12 03:37:38;;;;;;;2.93;1.67;;;;;;;20.88;42.35;99484.84;10456421;28;20058;-84
2022/05/12 03:42:52;;;;;;;2.55;1.70;;;;;;;20.68;43.11;99495.50;10481454;28;20051;-84
2022/05/12 03:48:03;;;;;;;2.67;1.70;;;;;;;20.80;43.08;99494.47;10456328;28;20139;-84
2022/05/12 03:53:16;;;;;;;4.40;1.23;;;;;;;20.77;42.94;99497.41;10535065;28;20059;-84
2022/05/12 03:58:35;;;;;;;3.40;1.58;;;;;;;20.72;43.25;99510.28;10577771;28;20062;-83
2022/05/12 04:03:45;;;;;;;3.00;1.40;;;;;;;20.61;43.99;99512.00;10489504;28;20024;-84
2022/05/12 04:08:53;;;;;;;1.73;1.30;;;;;;;20.64;43.65;99526.94;10475707;28;20297;-84
2022/05/12 04:14:01;;;;;;;9.75;2.00;;;;;;;20.81;43.14;99529.09;10554117;28;20047;-85
2022/05/12 04:19:15;;;;;;;2.15;1.30;;;;;;;20.87;43.15;99533.06;10469049;28;20115;-84
2022/05/12 04:24:25;;;;;;;4.45;1.30;;;;;;;20.71;43.89;99549.47;10573252;28;20054;-84
2022/05/12 04:29:27;;;;;;;3.78;1.30;;;;;;;20.82;44.14;99562.81;10502701;28;20036;-84
2022/05/12 04:40:33;;;;;;;7.60;1.55;;;;;;;20.59;45.44;99619.94;10558505;28;20040;-85
2022/05/12 04:45:49;;;;;;;5.00;1.63;;;;;;;19.94;47.48;99656.09;10480499;28;20501;-85
2022/05/12 04:51:00;;;;;;;8.73;1.70;;;;;;;19.38;49.71;99669.19;10474052;28;20075;-84
2022/05/12 04:56:11;;;;;;;6.50;2.03;;;;;;;19.33;50.76;99685.50;10455122;28;20074;-85
2022/05/12 05:01:22;;;;;;;3.97;1.85;;;;;;;19.38;51.08;99701.16;10565900;28;20040;-85
2022/05/12 05:06:30;;;;;;;5.53;1.88;;;;;;;19.11;52.27;99728.00;10487924;28;20134;-85
2022/05/12 05:11:36;;;;;;;6.35;1.98;;;;;;;19.18;53.16;99741.75;10476168;28;20044;-85
2022/05/12 05:17:01;;;;;;;6.25;2.10;;;;;;;19.16;53.93;99755.16;10475096;28;20040;-85
2022/05/12 05:22:05;;;;;;;7.18;1.80;;;;;;;18.81;53.91;99763.00;10483797;28;20048;-84
2022/05/12 05:27:08;;;;;;;5.70;1.77;;;;;;;18.84;54.21;99771.63;10480599;28;20076;-84
2022/05/12 05:32:22;;;;;;;4.60;1.75;;;;;;;18.62;55.70;99792.69;10486820;28;20044;-83
2022/05/12 05:37:24;;;;;;;3.50;1.77;;;;;;;18.73;55.61;99821.28;10481616;28;20090;-84
2022/05/12 05:42:26;;;;;;;5.50;1.90;;;;;;;18.69;55.63;99817.97;10492193;28;20039;-83
2022/05/12 05:47:31;;;;;;;3.80;1.92;;;;;;;18.44;56.87;99833.88;10493102;28;20028;-83
2022/05/12 05:58:06;;;;;;;9.88;1.90;;;;;;;18.73;56.17;99842.59;10483921;28;20513;-84
2022/05/12 06:03:22;;;;;;;2.60;1.38;;;;;;;18.88;54.66;99857.50;10489087;28;20054;-84
2022/05/12 06:08:31;;;;;;;6.35;1.80;;;;;;;18.77;55.54;99868.00;10482082;28;20036;-84
2022/05/12 06:13:34;;;;;;;4.28;1.88;;;;;;;18.81;54.70;99885.50;10458202;28;20048;-84
2022/05/12 06:18:50;;;;;;;3.85;1.73;;;;;;;18.74;55.24;99895.72;10471858;28;20044;-84
2022/05/12 06:23:53;;;;;;;4.55;1.55;;;;;;;18.72;55.22;99894.94;10468666;28;20052;-84
2022/05/12 06:28:56;;;;;;;3.13;1.50;;;;;;;19.17;54.70;99914.09;10455074;28;20040;-84
2022/05/12 06:33:59;;;;;;;3.53;1.48;;;;;;;18.99;55.46;99913.56;10556227;28;20040;-84
2022/05/12 06:39:01;;;;;;;5.13;1.55;;;;;;;18.86;55.65;99923.34;10492681;28;20124;-83
2022/05/12 06:44:05;;;;;;;4.20;1.55;;;;;;;18.96;54.75;99940.41;10501689;28;20047;-83
2022/05/12 06:49:07;;;;;;;11.77;1.55;;;;;;;18.42;50.65;99961.72;10553194;28;20066;-83
2022/05/12 06:54:09;;;;;;;5.43;0.68;;;;;;;18.23;50.05;99975.34;10491706;28;20040;-84
2022/05/12 06:59:10;;;;;;;4.35;0.70;;;;;;;18.25;48.74;99989.44;10507106;28;20032;-83
2022/05/12 07:04:12;;;;;;;1.52;0.50;;;;;;;18.29;49.36;99998.06;10503391;28;20048;-83
2022/05/12 07:09:14;;;;;;;3.33;0.73;;;;;;;18.75;49.48;99995.94;10504434;28;20044;-84
2022/05/12 07:14:17;;;;;;;4.07;0.57;;;;;;;19.26;48.57;100000.53;10587008;28;20069;-84
2022/05/12 07:19:19;;;;;;;5.80;0.70;;;;;;;19.27;47.75;100007.56;10490722;28;20101;-84
2022/05/12 07:29:41;;;;;;;6.47;0.85;;;;;;;18.85;49.31;100030.81;10571772;28;20069;-84
2022/05/12 07:34:43;;;;;;;4.18;0.90;;;;;;;18.76;49.87;100039.41;10450151;28;20044;-85
2022/05/12 07:39:45;;;;;;;3.25;0.70;;;;;;;19.06;49.89;100025.88;10449691;28;20108;-84
2022/05/12 07:44:47;;;;;;;4.15;0.60;;;;;;;19.15;46.93;100047.41;10461955;28;20048;-84
2022/05/12 07:49:48;;;;;;;3.53;0.47;;;;;;;19.49;43.12;100037.13;10460895;28;20048;-84
2022/05/12 07:54:50;;;;;;;5.68;0.60;;;;;;;19.88;44.11;100067.38;10472250;28;20058;-83
2022/05/12 07:59:51;;;;;;;3.55;0.55;;;;;;;19.80;43.98;100056.38;10486790;28;20084;-83
2022/05/12 08:04:53;;;;;;;10.48;0.75;;;;;;;19.73;45.13;100065.75;10503569;28;20036;-84
2022/05/12 08:09:57;;;;;;;1.08;0.50;;;;;;;19.94;44.91;100077.59;10490283;28;20075;-84
2022/05/12 08:14:59;;;;;;;2.80;0.60;;;;;;;20.35;45.24;100080.00;10472770;28;20044;-84
2022/05/12 08:20:00;;;;;;;6.50;0.98;;;;;;;20.00;47.06;100092.31;10469094;28;20048;-84
2022/05/12 08:25:04;;;;;;;2.35;0.60;;;;;;;20.09;47.28;100105.88;10485245;28;20044;-83
2022/05/12 08:30:12;;;;;;;2.38;0.70;;;;;;;20.19;45.86;100107.88;10492593;28;20078;-85
2022/05/12 08:35:22;;;;;;;3.97;0.52;;;;;;;19.75;48.01;100127.88;10473568;28;20053;-85
2022/05/12 08:41:34;;;;;;;4.45;0.90;;;;;;;20.54;44.41;100122.31;10439258;28;20044;-86
2022/05/12 08:47:26;;;;;;;2.03;0.40;;;;;;;20.51;43.48;100130.53;10582561;28;20044;-86
2022/05/12 08:52:53;;;;;;;11.07;1.10;;;;;;;21.27;42.01;100149.94;10495165;28;20044;-86
2022/05/12 08:58:01;;;;;;;4.28;0.60;;;;;;;21.48;42.14;100151.06;10500661;28;20082;-85
2022/05/12 09:03:34;;;;;;;2.92;0.65;;;;;;;22.20;41.64;100150.06;10511088;28;20028;-84
2022/05/12 09:09:00;;;;;;;2.55;0.82;;;;;;;22.65;40.81;100165.16;10597103;28;20044;-84
2022/05/12 09:14:04;;;;;;;1.58;0.50;;;;;;;21.95;40.59;100162.63;10510131;28;20077;-85
2022/05/12 09:19:05;;;;;;;1.83;0.45;;;;;;;21.76;40.83;100173.03;10489971;28;20040;-84
2022/05/12 09:24:11;;;;;;;13.32;1.00;;;;;;;22.07;40.18;100177.75;10563378;28;20056;-85
2022/05/12 09:29:47;;;;;;;2.70;0.60;;;;;;;21.71;40.65;100170.72;10461169;28;20044;-84
2022/05/12 09:35:20;;;;;;;3.95;0.68;;;;;;;21.69;39.56;100187.84;10463837;28;20432;-84
2022/05/12 09:40:35;;;;;;;2.10;0.50;;;;;;;21.46;38.80;100187.75;10464145;28;20044;-84
2022/05/12 09:46:15;;;;;;;5.35;0.50;;;;;;;22.01;37.99;100185.41;10450102;28;20048;-84
2022/05/12 09:51:33;;;;;;;3.90;0.70;;;;;;;22.41;37.13;100181.34;10467953;28;20040;-84
2022/05/12 09:56:35;;;;;;;1.60;0.57;;;;;;;21.97;35.35;100190.13;10447698;28;20040;-84
2022/05/12 10:01:51;;;;;;;2.55;0.63;;;;;;;22.03;35.90;100189.66;10445543;28;20494;-84
2022/05/12 10:08:00;;;;;;;3.22;1.10;;;;;;;22.46;36.94;100190.84;10467873;28;20040;-85
2022/05/12 10:13:00;;;;;;;2.13;0.55;;;;;;;23.47;34.30;100196.97;10528522;28;20113;-85
2022/05/12 10:18:38;;;;;;;4.78;0.57;;;;;;;23.03;35.30;100192.56;10542379;28;20048;-85
2022/05/12 10:23:59;;;;;;;3.00;0.60;;;;;;;22.71;35.00;100190.63;10487277;28;20056;-85
2022/05/12 10:29:17;;;;;;;2.17;0.40;;;;;;;22.16;35.53;100189.59;10557379;28;20036;-85
2022/05/12 10:34:38;;;;;;;4.18;0.45;;;;;;;23.20;35.87;100184.00;10506827;28;20048;-85
2022/05/12 10:40:06;;;;;;;2.47;0.40;;;;;;;23.37;36.20;100193.31;10510959;28;20454;-84
2022/05/12 10:45:30;;;;;;;1.73;0.45;;;;;;;22.70;36.35;100188.91;10510557;28;20069;-84
2022/05/12 10:50:49;;;;;;;2.88;0.63;;;;;;;22.05;37.61;100189.56;10513561;28;20056;-85
2022/05/12 10:56:36;;;;;;;5.82;0.70;;;;;;;21.91;37.64;100194.16;10486187;28;20057;-85
2022/05/12 11:02:11;;;;;;;2.30;0.70;;;;;;;22.25;37.46;100188.03;10497391;28;20504;-85
2022/05/12 11:07:39;;;;;;;1.85;0.40;;;;;;;22.22;37.43;100185.56;10555142;28;20134;-85
2022/05/12 11:12:49;;;;;;;1.17;0.50;;;;;;;21.82;37.27;100196.63;10476154;28;20048;-84
2022/05/12 11:17:56;;;;;;;2.75;0.50;;;;;;;22.32;37.16;100186.59;10467635;28;20050;-84
2022/05/12 11:23:28;;;;;;;1.20;0.60;;;;;;;22.63;36.65;100187.69;10553170;28;20106;-85
2022/05/12 11:34:16;;;;;;;5.32;0.75;;;;;;;22.60;35.74;100204.00;10548723;28;20048;-85
2022/05/12 11:39:51;;;;;;;2.72;0.73;;;;;;;21.82;39.25;100204.66;10464855;28;20068;-83
2022/05/12 11:44:58;;;;;;;3.65;0.65;;;;;;;22.51;37.15;100178.78;10455968;28;20050;-85
2022/05/12 11:50:18;;;;;;;1.63;0.60;;;;;;;23.43;36.74;100187.47;10482227;28;20048;-85
2022/05/12 11:55:32;;;;;;;2.35;0.50;;;;;;;23.19;38.08;100189.47;10461443;28;20416;-85
2022/05/12 12:00:41;;;;;;;0.95;0.45;;;;;;;23.24;37.62;100190.81;10462700;28;20044;-84
2022/05/12 12:05:50;;;;;;;2.42;0.50;;;;;;;22.92;36.23;100190.72;10458196;28;20134;-85
2022/05/12 12:11:13;;;;;;;1.47;0.50;;;;;;;23.12;37.94;100181.94;10460306;28;20040;-84
2022/05/12 12:16:28;;;;;;;1.25;0.50;;;;;;;23.76;36.36;100174.91;10467772;28;20044;-84
2022/05/12 12:21:49;;;;;;;5.45;0.70;;;;;;;24.48;35.13;100177.66;10545666;28;20066;-85
2022/05/12 12:26:55;;;;;;;1.83;0.50;;;;;;;23.25;35.63;100176.44;10486889;28;20454;-84
2022/05/12 12:32:27;;;;;;;1.60;0.70;;;;;;;23.14;35.82;100174.59;10451848;28;20075;-85
2022/05/12 12:37:48;;;;;;;2.30;0.60;;;;;;;23.28;35.63;100159.22;10550272;28;20478;-85
2022/05/12 12:42:50;;;;;;;5.07;0.70;;;;;;;23.17;35.67;100173.50;10460159;28;20059;-84
2022/05/12 12:48:10;;;;;;;3.07;0.60;;;;;;;23.47;34.98;100169.28;10472407;28;20047;-84
2022/05/12 12:58:49;;;;;;;2.33;0.45;;;;;;;24.10;33.88;100154.09;10502547;28;20032;-86
2022/05/12 13:03:55;;;;;;;1.42;0.80;;;;;;;22.85;35.58;100162.72;10496452;28;20116;-85
2022/05/12 13:09:00;;;;;;;1.90;0.45;;;;;;;22.68;36.11;100153.34;10553048;28;20047;-85
2022/05/12 13:14:03;;;;;;;2.33;0.70;;;;;;;22.69;33.98;100143.47;10442810;28;20083;-84
2022/05/12 13:19:05;;;;;;;4.95;0.60;;;;;;;23.00;34.41;100148.06;10443679;28;20082;-84
2022/05/12 13:24:19;;;;;;;3.38;0.60;;;;;;;23.68;33.69;100151.38;10551242;28;20055;-84
2022/05/12 13:29:26;;;;;;;2.00;0.82;;;;;;;23.46;33.55;100138.91;10451678;28;20044;-84
2022/05/12 13:34:30;;;;;;;3.10;0.70;;;;;;;23.25;34.07;100135.34;10552884;28;20047;-85
2022/05/12 13:39:56;;;;;;;3.65;0.60;;;;;;;23.44;33.27;100130.13;10471718;28;20459;-85
2022/05/12 13:45:06;;;;;;;2.22;0.60;;;;;;;23.83;33.96;100134.00;10480972;28;20048;-85
2022/05/12 13:50:13;;;;;;;2.97;0.70;;;;;;;24.00;33.09;100123.66;10497481;28;20091;-84
2022/05/12 13:55:25;;;;;;;3.17;0.50;;;;;;;23.00;33.85;100113.22;10473803;28;20497;-85
2022/05/12 14:00:39;;;;;;;5.30;0.70;;;;;;;23.41;33.86;100115.13;10478254;28;20048;-84
2022/05/12 14:05:41;;;;;;;6.47;0.60;;;;;;;23.02;34.60;100113.97;10549454;22;20074;-83
2022/05/12 14:10:49;;;;;;;2.35;0.40;;;;;;;23.05;34.07;100116.38;10567518;28;20046;-83
2022/05/12 14:21:21;;;;;;;3.28;0.52;;;;;;;22.20;35.13;100116.09;10558178;28;20097;-82
2022/05/12 14:26:22;;;;;;;2.25;0.50;;;;;;;22.05;35.57;100120.81;10472566;28;20040;-83
2022/05/12 14:31:24;;;;;;;3.40;0.60;;;;;;;21.88;36.66;100116.75;10560566;28;20051;-83
2022/05/12 14:36:26;;;;;;;1.38;0.47;;;;;;;21.52;36.41;100115.09;10455187;28;20143;-83
2022/05/12 14:41:28;;;;;;;3.75;1.48;;;;;;;21.28;36.04;100111.53;10588281;28;20066;-81
2022/05/12 14:46:34;;;;;;;8.75;7.75;;;;;;;21.00;36.29;100110.09;10587672;28;20031;-80
2022/05/12 14:51:37;;;;;;;7.20;6.50;;;;;;;21.35;37.17;100108.34;10580002;28;20047;-82
2022/05/12 14:56:41;;;;;;;1.13;0.70;;;;;;;22.13;35.19;100102.34;10492208;28;20052;-82
2022/05/12 15:01:47;;;;;;;2.88;0.63;;;;;;;22.24;34.58;100106.84;10587731;28;20058;-82
2022/05/12 15:06:50;;;;;;;1.60;0.50;;;;;;;22.48;35.10;100097.81;10507354;28;20047;-82
2022/05/12 15:11:53;;;;;;;2.13;0.70;;;;;;;22.16;35.46;100112.81;10593148;28;20055;-82
2022/05/12 15:16:55;;;;;;;4.90;0.80;;;;;;;21.86;36.10;100093.75;10592562;28;20032;-82
2022/05/12 15:22:01;;;;;;;3.20;0.50;;;;;;;21.86;35.09;100101.78;10593109;28;20036;-83
2022/05/12 15:27:06;;;;;;;4.03;1.45;;;;;;;21.47;36.95;100105.69;10592607;28;20058;-82
2022/05/12 15:32:07;;;;;;;3.78;0.50;;;;;;;21.00;36.95;100113.59;10592610;28;20083;-83
2022/05/12 15:37:11;;;;;;;1.90;0.40;;;;;;;21.24;36.51;100115.41;10506533;28;20020;-79
2022/05/12 15:42:16;;;;;;;1.70;0.60;;;;;;;21.34;36.99;100103.97;10506491;28;20028;-82
2022/05/12 15:47:29;;;;;;;1.02;0.55;;;;;;;21.04;37.14;100111.56;10591687;28;20031;-81
2022/05/12 15:52:31;;;;;;;1.90;1.02;;;;;;;21.11;37.40;100104.78;10591160;28;20044;-80
2022/05/12 15:57:32;;;;;;;1.73;0.50;;;;;;;20.91;36.50;100103.59;10589815;28;20072;-81
2022/05/12 16:02:34;;;;;;;4.00;0.70;;;;;;;20.83;37.98;100104.16;10591216;28;20050;-81
2022/05/12 16:07:36;;;;;;;2.58;0.60;;;;;;;20.79;37.23;100102.66;10505142;28;20028;-82
2022/05/12 16:12:42;;;;;;;3.17;0.60;;;;;;;20.87;37.31;100102.97;10485483;28;20048;-83
2022/05/12 16:17:46;;;;;;;;;;;;;;;20.60;37.37;100100.50;10570258;28;20066;-80
2022/05/12 16:22:50;;;;;;;3.70;0.77;;;;;;;20.51;37.99;100092.31;10575684;28;19991;-82
2022/05/12 16:27:57;;;;;;;5.65;4.57;;;;;;;20.53;39.42;100095.69;10492756;28;20040;-81
2022/05/12 16:32:59;;;;;;;2.80;2.60;;;;;;;20.34;38.17;100085.47;10482416;28;20055;-82
2022/05/12 16:38:01;;;;;;;4.57;0.80;;;;;;;20.43;38.51;100079.47;10569268;28;20503;-81
2022/05/12 16:43:03;;;;;;;8.95;0.73;;;;;;;20.25;38.67;100081.63;10554565;28;20044;-82
2022/05/12 16:48:08;;;;;;;3.78;1.17;;;;;;;20.27;38.20;100077.03;10555723;28;20104;-83
2022/05/12 16:53:11;;;;;;;4.18;1.58;;;;;;;20.33;38.53;100075.75;10557761;28;20142;-82
2022/05/12 16:58:12;;;;;;;7.60;1.20;;;;;;;20.37;37.69;100078.09;10562945;28;20071;-83
2022/05/12 17:03:31;;;;;;;3.50;0.90;;;;;;;20.46;38.38;100079.25;10490096;28;20044;-83
2022/05/12 17:08:34;;;;;;;3.40;0.90;;;;;;;20.31;38.10;100083.84;10481200;28;20089;-82
2022/05/12 17:13:36;;;;;;;3.08;0.65;;;;;;;20.13;37.90;100088.69;10566848;28;20086;-82
2022/05/12 17:18:38;;;;;;;2.67;0.63;;;;;;;20.08;38.30;100087.31;10568564;28;20040;-83
2022/05/12 17:23:40;;;;;;;2.38;0.80;;;;;;;20.27;37.72;100073.50;10573242;28;20489;-82
2022/05/12 17:28:43;;;;;;;3.60;0.75;;;;;;;20.02;38.90;100087.75;10498164;28;20082;-83
2022/05/12 17:33:45;;;;;;;3.50;1.08;;;;;;;19.82;38.92;100086.47;10500938;28;20040;-82
2022/05/12 17:38:51;;;;;;;0.88;0.60;;;;;;;19.92;38.66;100082.19;10486777;28;20059;-83
2022/05/12 17:43:57;;;;;;;2.13;1.30;;;;;;;19.80;37.96;100091.06;10487117;28;20186;-83
2022/05/12 17:48:59;;;;;;;2.50;0.85;;;;;;;19.82;38.14;100097.13;10503397;28;20032;-83
2022/05/12 17:54:02;;;;;;;3.45;0.73;;;;;;;19.68;38.77;100089.22;10589451;28;20051;-80
2022/05/12 17:59:04;;;;;;;4.13;0.80;;;;;;;19.76;38.70;100092.22;10593541;28;20112;-81
2022/05/12 18:04:07;;;;;;;0.70;0.43;;;;;;;19.83;38.66;100089.03;10487921;28;20041;-83
2022/05/12 18:09:09;;;;;;;0.77;0.52;;;;;;;19.95;38.14;100097.97;10499774;28;20048;-82
2022/05/12 18:14:11;;;;;;;2.42;0.60;;;;;;;19.83;38.65;100099.72;10501376;28;20067;-82
2022/05/12 18:19:13;;;;;;;6.68;0.95;;;;;;;19.45;40.30;100104.94;10485554;28;20046;-82
2022/05/12 18:24:14;;;;;;;1.70;0.68;;;;;;;19.49;39.54;100111.78;10488133;28;20024;-80
2022/05/12 18:29:21;;;;;;;1.85;0.50;;;;;;;19.34;40.10;100110.13;10488147;28;20028;-83
2022/05/12 18:34:22;;;;;;;11.35;1.25;;;;;;;18.96;41.54;100120.66;10584604;28;20043;-82
2022/05/12 18:39:24;;;;;;;4.47;0.60;;;;;;;18.92;41.63;100121.81;10579568;28;20044;-83
2022/05/12 18:44:26;;;;;;;4.05;0.70;;;;;;;18.83;42.02;100129.44;10496697;28;20048;-83
2022/05/12 18:49:27;;;;;;;1.23;0.50;;;;;;;18.82;41.73;100124.22;10588748;28;20039;-82
2022/05/12 18:54:29;;;;;;;1.60;0.73;;;;;;;18.47;42.71;100127.28;10590263;28;20040;-82
2022/05/12 18:59:30;;;;;;;5.05;0.90;;;;;;;18.28;43.67;100132.03;10506345;28;20057;-81
2022/05/12 19:04:32;;;;;;;2.17;0.60;;;;;;;18.33;42.39;100140.63;10592045;28;20053;-82
2022/05/12 19:09:34;;;;;;;1.83;0.75;;;;;;;18.24;42.99;100149.16;10506645;28;20062;-80
2022/05/12 19:14:35;;;;;;;4.60;1.00;;;;;;;18.21;42.97;100152.00;10587666;28;20114;-82
2022/05/12 19:19:37;;;;;;;1.98;0.73;;;;;;;17.84;45.48;100160.44;10586269;28;20040;-80
2022/05/12 19:24:38;;;;;;;2.40;0.80;;;;;;;17.76;46.30;100165.34;10587807;28;20093;-81
2022/05/12 19:29:40;;;;;;;2.47;0.68;;;;;;;17.84;43.75;100171.06;10592714;28;20100;-82
2022/05/12 19:34:42;;;;;;;3.85;0.95;;;;;;;17.73;44.72;100177.91;10592762;28;20020;-81
2022/05/12 19:39:44;;;;;;;2.15;0.68;;;;;;;17.71;44.22;100175.38;10571503;28;20035;-81
2022/05/12 19:44:45;;;;;;;3.15;1.13;;;;;;;17.50;45.58;100172.16;10488598;28;20027;-80
2022/05/12 19:49:49;;;;;;;5.97;1.35;;;;;;;17.33;46.08;100172.28;10579512;28;20035;-82
2022/05/12 19:54:50;;;;;;;2.38;1.02;;;;;;;17.29;46.30;100176.91;10565049;28;20115;-81
2022/05/12 19:59:52;;;;;;;1.60;0.98;;;;;;;17.12;46.77;100175.19;10480482;28;20044;-82
2022/05/12 20:04:54;;;;;;;2.03;0.90;;;;;;;17.31;46.35;100180.34;10500192;22;20051;-81
2022/05/12 20:09:56;;;;;;;3.13;0.90;;;;;;;17.10;46.64;100174.44;10453104;28;20040;-81
2022/05/12 20:14:58;;;;;;;2.13;1.00;;;;;;;16.86;48.25;100179.31;10477798;28;20048;-81
2022/05/12 20:20:00;;;;;;;2.97;1.27;;;;;;;16.92;47.70;100172.81;10569878;28;20097;-79
2022/05/12 20:25:03;;;;;;;1.67;1.10;;;;;;;16.75;49.29;100173.75;10568208;28;20040;-81
2022/05/12 20:30:07;;;;;;;2.50;1.23;;;;;;;16.66;48.84;100171.56;10485886;28;20036;-81
2022/05/12 20:35:11;;;;;;;2.78;1.15;;;;;;;16.70;49.95;100172.25;10490418;28;20056;-81
2022/05/12 20:40:17;;;;;;;8.40;1.38;;;;;;;16.64;49.73;100169.00;10485874;28;20048;-82
2022/05/12 20:50:42;;;;;;;2.60;0.98;;;;;;;16.46;50.99;100169.97;10560286;28;19920;-83
2022/05/12 20:55:46;;;;;;;2.33;1.20;;;;;;;16.70;50.47;100189.03;10559467;28;20486;-82
2022/05/12 21:00:49;;;;;;;2.28;1.33;;;;;;;16.56;50.25;100192.44;10473402;28;20440;-81
2022/05/12 21:05:51;;;;;;;2.65;1.20;;;;;;;16.30;51.20;100187.69;10471659;28;20054;-79
2022/05/12 21:10:53;;;;;;;2.30;0.98;;;;;;;16.02;52.63;100199.69;10471439;28;20097;-82
2022/05/12 21:15:56;;;;;;;1.65;1.10;;;;;;;15.87;54.11;100203.16;10470955;28;20056;-82
2022/05/12 21:20:58;;;;;;;2.45;0.82;;;;;;;16.17;51.39;100210.47;10558741;28;20036;-82
2022/05/12 21:26:00;;;;;;;2.55;1.08;;;;;;;16.13;51.60;100194.72;10557621;28;20044;-83
2022/05/12 21:31:03;;;;;;;2.28;1.05;;;;;;;15.99;51.63;100193.72;10469121;28;20040;-81
2022/05/12 21:36:06;;;;;;;1.33;0.80;;;;;;;15.90;52.22;100197.72;10470035;28;20056;-81
2022/05/12 21:41:15;;;;;;;2.38;0.85;;;;;;;15.70;53.46;100188.09;10559273;28;20044;-80
2022/05/12 21:46:17;;;;;;;4.43;0.90;;;;;;;15.87;52.97;100195.19;10476182;28;20440;-81
2022/05/12 21:51:18;;;;;;;2.20;0.90;;;;;;;15.83;52.77;100193.63;10458503;28;20048;-83
2022/05/12 21:56:24;;;;;;;1.50;0.82;;;;;;;15.65;53.71;100187.47;10560671;28;20492;-82
2022/05/12 22:01:29;;;;;;;1.58;0.75;;;;;;;15.58;54.04;100180.72;10474029;28;20051;-80
2022/05/12 22:06:35;;;;;;;1.92;1.17;;;;;;;15.32;55.44;100179.41;10559486;28;20050;-82
2022/05/12 22:16:57;;;;;;;3.75;1.52;;;;;;;15.43;55.17;100176.19;10581825;28;20100;-81
2022/05/12 22:21:59;;;;;;;3.75;1.20;;;;;;;15.25;55.86;100178.81;10578256;28;20048;-82
2022/05/12 22:27:01;;;;;;;2.65;1.10;;;;;;;15.24;56.21;100178.91;10471712;28;20052;-82
2022/05/12 22:32:04;;;;;;;2.17;1.00;;;;;;;15.16;55.98;100178.41;10475690;28;20038;-81
2022/05/12 22:37:07;;;;;;;2.72;1.30;;;;;;;14.84;56.68;100178.16;10561764;28;20559;-80
2022/05/12 22:42:09;;;;;;;3.63;1.75;;;;;;;14.64;57.30;100184.38;10472360;28;20032;-81
2022/05/12 22:47:10;;;;;;;2.88;1.52;;;;;;;14.83;56.68;100184.38;10556731;28;20124;-81
2022/05/12 22:52:12;;;;;;;6.07;1.38;;;;;;;14.95;56.57;100167.91;10551959;28;20055;-81
2022/05/12 22:57:14;;;;;;;2.53;1.27;;;;;;;14.87;56.72;100175.34;10466909;28;20051;-81
2022/05/12 23:02:15;;;;;;;2.38;1.35;;;;;;;14.84;56.26;100168.44;10473660;28;20044;-81
2022/05/12 23:07:17;;;;;;;2.45;1.27;;;;;;;14.94;56.25;100173.28;10471867;28;20040;-81
2022/05/12 23:12:19;;;;;;;1.88;1.05;;;;;;;14.76;57.26;100180.31;10467030;28;20044;-80
2022/05/12 23:17:20;;;;;;;1.88;1.20;;;;;;;14.61;57.93;100177.44;10466017;28;20529;-82
2022/05/12 23:22:22;;;;;;;2.67;1.30;;;;;;;14.37;59.61;100162.66;10466670;28;20097;-81
2022/05/12 23:27:23;;;;;;;1.83;0.98;;;;;;;14.36;59.65;100166.22;10467051;28;20068;-82
2022/05/12 23:32:25;;;;;;;1.65;1.30;;;;;;;14.37;60.00;100167.94;10464370;28;20048;-81
2022/05/12 23:37:27;;;;;;;2.75;1.52;;;;;;;14.45;59.49;100179.03;10464110;28;20055;-82
2022/05/12 23:42:28;;;;;;;2.47;1.25;;;;;;;14.31;60.75;100165.59;10465055;28;20043;-83
2022/05/12 23:47:30;;;;;;;2.33;1.40;;;;;;;14.28;60.78;100166.56;10465702;28;20060;-82
2022/05/12 23:52:31;;;;;;;3.00;1.30;;;;;;;14.52;60.23;100171.69;10531777;28;20048;-81
2022/05/12 23:57:33;;;;;;;3.00;1.40;;;;;;;14.36;60.89;100164.44;10550874;28;20055;-80
